createdAt,value
2023-01-30T00:00:10.006Z,17.80
2023-01-30T00:02:39.325Z,16.02
2023-01-30T00:05:08.942Z,15.32
2023-01-30T00:07:38.222Z,15.43
2023-01-30T00:10:07.806Z,15.25
2023-01-30T00:12:37.045Z,15.82
2023-01-30T00:15:06.708Z,15.48
2023-01-30T00:17:36.004Z,16.75
2023-01-30T00:23:00.187Z,15.60
2023-01-30T00:25:31.650Z,16.80
2023-01-30T00:28:04.347Z,15.70
2023-01-30T00:33:02.958Z,15.40
2023-01-30T00:35:32.260Z,14.73
2023-01-30T00:38:01.964Z,15.77
2023-01-30T00:40:32.115Z,15.57
2023-01-30T00:43:14.661Z,16.48
2023-01-30T00:45:58.452Z,15.25
2023-01-30T00:48:28.070Z,14.98
2023-01-30T00:50:57.349Z,15.07
2023-01-30T00:53:26.843Z,15.60
2023-01-30T00:55:56.331Z,15.35
2023-01-30T00:58:26.167Z,15.70
2023-01-30T01:00:55.849Z,14.57
2023-01-30T01:03:26.181Z,16.00
2023-01-30T01:05:55.693Z,15.32
2023-01-30T01:08:28.006Z,14.05
2023-01-30T01:10:58.390Z,15.45
2023-01-30T01:13:28.295Z,15.43
2023-01-30T01:15:57.613Z,14.38
2023-01-30T01:18:26.899Z,13.20
2023-01-30T01:20:56.169Z,14.40
2023-01-30T01:23:28.141Z,14.88
2023-01-30T01:25:57.793Z,16.58
2023-01-30T01:28:27.171Z,14.38
2023-01-30T01:30:57.323Z,13.10
2023-01-30T01:33:30.075Z,14.30
2023-01-30T01:36:00.620Z,15.38
2023-01-30T01:38:30.254Z,15.40
2023-01-30T01:41:02.937Z,15.10
2023-01-30T01:43:36.511Z,14.50
2023-01-30T01:46:24.401Z,14.88
2023-01-30T01:48:56.512Z,14.80
2023-01-30T01:51:37.560Z,14.63
2023-01-30T01:54:10.713Z,15.10
2023-01-30T01:56:41.543Z,15.45
2023-01-30T01:59:23.690Z,13.68
2023-01-30T02:01:53.935Z,14.75
2023-01-30T02:04:49.643Z,15.32
2023-01-30T02:07:20.680Z,15.23
2023-01-30T02:09:50.859Z,15.07
2023-01-30T02:12:20.423Z,15.13
2023-01-30T02:14:50.569Z,14.85
2023-01-30T02:17:19.906Z,14.65
2023-01-30T02:19:56.936Z,14.13
2023-01-30T02:22:45.176Z,14.80
2023-01-30T02:25:33.482Z,15.63
2023-01-30T02:28:05.606Z,15.13
2023-01-30T02:31:01.932Z,16.27
2023-01-30T02:33:51.073Z,14.75
2023-01-30T02:36:26.437Z,14.68
2023-01-30T02:41:28.075Z,16.23
2023-01-30T02:44:16.609Z,14.90
2023-01-30T02:46:50.751Z,15.15
2023-01-30T02:49:26.378Z,15.18
2023-01-30T02:51:57.411Z,16.40
2023-01-30T02:54:27.031Z,15.65
2023-01-30T02:56:59.582Z,15.63
2023-01-30T02:59:36.796Z,16.25
2023-01-30T03:02:25.439Z,14.40
2023-01-30T03:05:11.448Z,15.00
2023-01-30T03:07:53.006Z,15.75
2023-01-30T03:10:26.393Z,14.98
2023-01-30T03:13:24.028Z,15.23
2023-01-30T03:18:23.330Z,14.30
2023-01-30T03:20:54.253Z,13.60
2023-01-30T03:23:23.598Z,13.73
2023-01-30T03:25:53.770Z,14.15
2023-01-30T03:28:23.854Z,13.32
2023-01-30T03:30:53.250Z,14.75
2023-01-30T03:33:22.656Z,14.30
2023-01-30T03:35:53.836Z,15.35
2023-01-30T03:38:23.289Z,12.90
2023-01-30T03:40:53.180Z,15.75
2023-01-30T03:43:22.714Z,15.85
2023-01-30T03:45:52.102Z,14.00
2023-01-30T03:48:21.520Z,15.48
2023-01-30T03:50:50.816Z,14.70
2023-01-30T03:55:55.172Z,14.25
2023-01-30T03:58:29.435Z,15.18
2023-01-30T04:01:00.445Z,12.95
2023-01-30T04:03:29.832Z,12.88
2023-01-30T04:06:01.661Z,15.63
2023-01-30T04:08:31.404Z,12.70
2023-01-30T04:11:00.940Z,13.68
2023-01-30T04:13:31.212Z,14.05
2023-01-30T04:16:17.474Z,14.18
2023-01-30T04:19:05.510Z,13.50
2023-01-30T04:21:36.003Z,13.30
2023-01-30T04:24:05.526Z,13.93
2023-01-30T04:26:35.873Z,13.40
2023-01-30T04:29:05.222Z,13.93
2023-01-30T04:31:35.023Z,13.98
2023-01-30T04:34:08.468Z,13.88
2023-01-30T04:36:38.004Z,12.88
2023-01-30T04:39:07.341Z,12.82
2023-01-30T04:41:36.848Z,12.25
2023-01-30T04:44:06.996Z,12.73
2023-01-30T04:46:48.994Z,13.02
2023-01-30T04:49:18.941Z,12.68
2023-01-30T04:51:50.085Z,12.30
2023-01-30T04:54:19.341Z,12.38
2023-01-30T04:56:48.647Z,12.18
2023-01-30T04:59:18.176Z,12.73
2023-01-30T05:01:49.622Z,13.47
2023-01-30T05:04:18.930Z,11.50
2023-01-30T05:06:48.196Z,12.73
2023-01-30T05:09:17.553Z,12.75
2023-01-30T05:11:46.871Z,12.35
2023-01-30T05:14:16.308Z,12.07
2023-01-30T05:16:45.674Z,12.30
2023-01-30T05:19:15.452Z,10.40
2023-01-30T05:21:44.729Z,10.85
2023-01-30T05:24:14.052Z,11.05
2023-01-30T05:26:43.433Z,9.63
2023-01-30T05:29:12.886Z,10.55
2023-01-30T05:31:42.193Z,10.35
2023-01-30T05:34:13.699Z,10.02
2023-01-30T05:36:42.933Z,9.00
2023-01-30T05:39:12.184Z,8.23
2023-01-30T05:41:41.507Z,8.18
2023-01-30T05:44:11.802Z,8.02
2023-01-30T05:46:42.098Z,7.53
2023-01-30T05:49:11.444Z,7.38
2023-01-30T05:51:41.251Z,7.72
2023-01-30T05:54:10.901Z,7.68
2023-01-30T05:56:40.247Z,7.95
2023-01-30T05:59:09.534Z,6.65
2023-01-30T06:01:38.950Z,6.63
2023-01-30T06:04:10.309Z,5.25
2023-01-30T06:06:39.664Z,5.32
2023-01-30T06:09:08.988Z,5.88
2023-01-30T06:11:38.368Z,5.35
2023-01-30T06:14:07.629Z,4.93
2023-01-30T06:16:36.979Z,5.20
2023-01-30T06:19:06.360Z,4.95
2023-01-30T06:21:38.371Z,4.43
2023-01-30T06:24:07.702Z,4.15
2023-01-30T06:26:37.056Z,3.92
2023-01-30T06:29:06.588Z,5.03
2023-01-30T06:31:35.894Z,3.85
2023-01-30T06:34:05.155Z,3.90
2023-01-30T06:36:34.672Z,3.75
2023-01-30T06:39:04.025Z,3.65
2023-01-30T06:41:33.369Z,3.67
2023-01-30T06:44:02.636Z,3.78
2023-01-30T06:46:31.921Z,3.33
2023-01-30T06:49:01.205Z,3.85
2023-01-30T06:51:30.673Z,2.92
2023-01-30T06:53:59.952Z,3.33
2023-01-30T06:56:29.156Z,2.75
2023-01-30T06:58:58.472Z,2.70
2023-01-30T07:01:29.008Z,3.53
2023-01-30T07:03:58.358Z,3.50
2023-01-30T07:06:29.455Z,2.42
2023-01-30T07:08:59.054Z,3.67
2023-01-30T07:11:28.803Z,3.28
2023-01-30T07:13:58.082Z,2.92
2023-01-30T07:16:29.588Z,2.65
2023-01-30T07:18:59.576Z,2.60
2023-01-30T07:21:28.871Z,3.00
2023-01-30T07:23:59.543Z,3.53
2023-01-30T07:26:31.321Z,3.15
2023-01-30T07:29:01.006Z,3.10
2023-01-30T07:31:30.675Z,3.05
2023-01-30T07:33:59.993Z,3.53
2023-01-30T07:36:29.240Z,2.67
2023-01-30T07:38:58.497Z,4.13
2023-01-30T07:41:27.764Z,3.67
2023-01-30T07:43:56.990Z,2.60
2023-01-30T07:46:26.224Z,2.80
2023-01-30T07:48:55.573Z,2.95
2023-01-30T07:51:24.838Z,2.53
2023-01-30T07:53:54.147Z,2.97
2023-01-30T07:56:24.624Z,2.65
2023-01-30T07:58:54.017Z,3.10
2023-01-30T08:01:23.575Z,3.20
2023-01-30T08:03:52.837Z,3.25
2023-01-30T08:06:22.139Z,3.13
2023-01-30T08:08:52.091Z,2.10
2023-01-30T08:11:21.809Z,2.55
2023-01-30T08:13:52.522Z,2.60
2023-01-30T08:16:21.860Z,2.42
2023-01-30T08:18:51.168Z,2.67
2023-01-30T08:21:20.616Z,2.78
2023-01-30T08:23:49.899Z,3.40
2023-01-30T08:26:19.260Z,3.30
2023-01-30T08:28:48.566Z,2.47
2023-01-30T08:31:18.963Z,3.00
2023-01-30T08:33:48.204Z,3.70
2023-01-30T08:36:17.460Z,2.60
2023-01-30T08:38:46.870Z,2.63
2023-01-30T08:41:16.150Z,2.92
2023-01-30T08:43:45.483Z,4.00
2023-01-30T08:46:14.841Z,2.20
2023-01-30T08:48:49.917Z,2.80
2023-01-30T08:51:19.657Z,3.05
2023-01-30T08:53:48.942Z,2.85
2023-01-30T08:56:18.286Z,3.28
2023-01-30T08:58:49.149Z,3.08
2023-01-30T09:01:18.700Z,3.50
2023-01-30T09:03:48.015Z,3.40
2023-01-30T09:06:17.315Z,3.33
2023-01-30T09:08:46.705Z,3.03
2023-01-30T09:11:16.051Z,2.95
2023-01-30T09:13:46.268Z,3.75
2023-01-30T09:16:16.840Z,2.87
2023-01-30T09:18:46.796Z,2.90
2023-01-30T09:21:16.644Z,3.22
2023-01-30T09:23:45.902Z,2.80
2023-01-30T09:26:15.235Z,3.67
2023-01-30T09:28:44.554Z,3.08
2023-01-30T09:31:13.989Z,4.03
2023-01-30T09:33:43.315Z,4.10
2023-01-30T09:36:12.660Z,4.35
2023-01-30T09:38:41.933Z,3.65
2023-01-30T09:41:30.441Z,3.13
2023-01-30T09:44:20.040Z,2.88
2023-01-30T09:46:54.033Z,3.22
2023-01-30T09:49:36.247Z,2.88
2023-01-30T09:52:05.650Z,2.75
2023-01-30T09:54:37.869Z,3.17
2023-01-30T09:57:21.870Z,2.65
2023-01-30T10:00:11.862Z,2.65
2023-01-30T10:03:04.396Z,3.70
2023-01-30T10:05:39.502Z,2.80
2023-01-30T10:08:21.006Z,2.35
2023-01-30T10:11:10.503Z,3.20
2023-01-30T10:14:06.842Z,2.70
2023-01-30T10:16:55.085Z,2.83
2023-01-30T10:19:35.832Z,2.97
2023-01-30T10:22:13.711Z,4.57
2023-01-30T10:24:56.458Z,4.28
2023-01-30T10:27:26.040Z,2.92
2023-01-30T10:29:57.244Z,3.30
2023-01-30T10:32:35.131Z,3.50
2023-01-30T10:35:10.067Z,3.45
2023-01-30T10:37:47.704Z,3.08
2023-01-30T10:40:17.671Z,2.83
2023-01-30T10:42:56.319Z,2.83
2023-01-30T10:45:30.935Z,3.40
2023-01-30T10:48:05.724Z,3.10
2023-01-30T10:50:51.870Z,3.33
2023-01-30T10:53:25.790Z,3.15
2023-01-30T10:55:58.269Z,3.05
2023-01-30T11:01:04.527Z,3.00
2023-01-30T11:03:38.506Z,3.38
2023-01-30T11:06:16.810Z,2.72
2023-01-30T11:08:46.489Z,2.40
2023-01-30T11:11:37.946Z,2.58
2023-01-30T11:14:08.690Z,3.50
2023-01-30T11:16:54.721Z,2.92
2023-01-30T11:19:28.665Z,2.65
2023-01-30T11:22:02.717Z,3.83
2023-01-30T11:24:41.178Z,3.33
2023-01-30T11:27:15.141Z,3.13
2023-01-30T11:29:44.501Z,2.63
2023-01-30T11:32:15.822Z,2.83
2023-01-30T11:34:46.499Z,3.42
2023-01-30T11:37:34.325Z,2.83
2023-01-30T11:40:10.064Z,3.08
2023-01-30T11:42:40.332Z,2.80
2023-01-30T11:45:18.110Z,2.65
2023-01-30T11:47:57.558Z,2.83
2023-01-30T11:50:35.223Z,3.20
2023-01-30T11:53:08.724Z,3.97
2023-01-30T11:55:40.611Z,3.55
2023-01-30T12:00:42.038Z,1.98
2023-01-30T12:03:15.513Z,2.70
2023-01-30T12:05:47.300Z,2.80
2023-01-30T12:08:24.768Z,3.22
2023-01-30T12:11:02.565Z,4.03
2023-01-30T12:13:37.139Z,3.22
2023-01-30T12:16:06.380Z,3.50
2023-01-30T12:18:39.919Z,3.35
2023-01-30T12:21:24.303Z,3.70
2023-01-30T12:23:59.657Z,2.70
2023-01-30T12:26:32.028Z,3.40
2023-01-30T12:29:20.190Z,2.63
2023-01-30T12:31:51.653Z,3.08
2023-01-30T12:34:24.255Z,2.93
2023-01-30T12:36:59.429Z,2.88
2023-01-30T12:39:34.815Z,3.08
2023-01-30T12:42:04.178Z,2.70
2023-01-30T12:44:37.738Z,3.28
2023-01-30T12:47:25.882Z,3.40
2023-01-30T12:50:14.159Z,4.07
2023-01-30T12:52:43.495Z,2.85
2023-01-30T12:55:25.127Z,3.17
2023-01-30T12:58:05.804Z,3.72
2023-01-30T13:01:02.194Z,2.67
2023-01-30T13:03:40.518Z,3.03
2023-01-30T13:06:26.097Z,2.85
2023-01-30T13:09:01.368Z,3.10
2023-01-30T13:11:40.128Z,3.47
2023-01-30T13:14:12.451Z,3.65
2023-01-30T13:17:03.361Z,3.38
2023-01-30T13:19:41.115Z,2.63
2023-01-30T13:22:14.942Z,3.65
2023-01-30T13:24:44.202Z,2.80
2023-01-30T13:27:18.240Z,3.92
2023-01-30T13:29:48.133Z,3.05
2023-01-30T13:32:20.582Z,3.38
2023-01-30T13:37:23.101Z,2.72
2023-01-30T13:39:53.195Z,2.58
2023-01-30T13:42:41.420Z,3.28
2023-01-30T13:45:17.491Z,3.28
2023-01-30T13:48:03.731Z,3.15
2023-01-30T13:50:51.841Z,2.13
2023-01-30T13:53:33.247Z,3.03
2023-01-30T13:56:08.966Z,3.35
2023-01-30T13:58:59.513Z,4.80
2023-01-30T14:01:49.644Z,2.58
2023-01-30T14:04:38.727Z,2.80
2023-01-30T14:07:18.952Z,3.65
2023-01-30T14:10:07.145Z,3.67
2023-01-30T14:12:38.025Z,2.67
2023-01-30T14:15:16.543Z,2.63
2023-01-30T14:18:01.887Z,3.10
2023-01-30T14:20:32.233Z,4.10
2023-01-30T14:23:06.296Z,2.40
2023-01-30T14:25:37.492Z,3.03
2023-01-30T14:28:07.716Z,3.45
2023-01-30T14:30:42.900Z,3.60
2023-01-30T14:33:24.270Z,3.45
2023-01-30T14:36:05.682Z,3.83
2023-01-30T14:38:34.979Z,3.78
2023-01-30T14:41:04.215Z,4.22
2023-01-30T14:43:41.291Z,3.90
2023-01-30T14:46:19.912Z,2.90
2023-01-30T14:48:53.871Z,3.47
2023-01-30T14:51:23.316Z,3.15
2023-01-30T14:54:07.694Z,3.42
2023-01-30T14:56:42.282Z,3.70
2023-01-30T14:59:14.605Z,2.90
2023-01-30T15:02:02.344Z,4.50
2023-01-30T15:04:35.121Z,4.05
2023-01-30T15:07:10.403Z,3.58
2023-01-30T15:09:40.722Z,3.30
2023-01-30T15:12:36.356Z,3.28
2023-01-30T15:15:14.595Z,3.40
2023-01-30T15:18:07.293Z,3.67
2023-01-30T15:20:55.878Z,3.28
2023-01-30T15:23:27.952Z,2.88
2023-01-30T15:26:09.643Z,3.75
2023-01-30T15:28:45.919Z,3.30
2023-01-30T15:31:17.530Z,4.03
2023-01-30T15:33:48.207Z,4.25
2023-01-30T15:36:21.882Z,3.78
2023-01-30T15:38:58.856Z,3.53
2023-01-30T15:41:28.572Z,3.33
2023-01-30T15:44:00.902Z,3.45
2023-01-30T15:46:49.173Z,4.70
2023-01-30T15:49:37.084Z,2.70
2023-01-30T15:52:07.563Z,3.28
2023-01-30T15:54:36.927Z,2.85
2023-01-30T15:57:06.335Z,3.58
2023-01-30T15:59:40.860Z,3.13
2023-01-30T16:02:25.114Z,3.47
2023-01-30T16:05:06.344Z,3.25
2023-01-30T16:07:35.626Z,3.75
2023-01-30T16:10:07.652Z,3.53
2023-01-30T16:12:40.894Z,4.05
2023-01-30T16:15:25.673Z,3.55
2023-01-30T16:18:06.259Z,3.33
2023-01-30T16:20:55.227Z,3.55
2023-01-30T16:23:32.680Z,3.30
2023-01-30T16:26:02.268Z,3.40
2023-01-30T16:28:32.442Z,4.57
2023-01-30T16:31:09.117Z,3.13
2023-01-30T16:33:38.571Z,3.83
2023-01-30T16:36:09.189Z,3.47
2023-01-30T16:38:47.121Z,4.28
2023-01-30T16:41:33.429Z,3.08
2023-01-30T16:44:10.548Z,3.10
2023-01-30T16:46:48.284Z,5.35
2023-01-30T16:49:32.046Z,3.85
2023-01-30T16:52:19.968Z,3.45
2023-01-30T16:54:57.012Z,3.65
2023-01-30T16:57:33.337Z,3.90
2023-01-30T17:00:03.338Z,3.80
2023-01-30T17:02:37.863Z,3.17
2023-01-30T17:05:18.241Z,3.45
2023-01-30T17:07:47.803Z,4.47
2023-01-30T17:10:36.681Z,3.55
2023-01-30T17:13:06.275Z,3.42
2023-01-30T17:15:36.480Z,4.50
2023-01-30T17:18:07.566Z,3.72
2023-01-30T17:20:42.566Z,3.60
2023-01-30T17:23:12.535Z,3.92
2023-01-30T17:25:43.391Z,3.25
2023-01-30T17:28:15.389Z,4.15
2023-01-30T17:30:44.685Z,2.88
2023-01-30T17:33:14.019Z,3.80
2023-01-30T17:35:43.401Z,3.53
2023-01-30T17:38:13.545Z,3.47
2023-01-30T17:40:42.960Z,3.40
2023-01-30T17:43:13.224Z,3.22
2023-01-30T17:45:42.706Z,3.72
2023-01-30T17:48:13.085Z,3.72
2023-01-30T17:50:42.591Z,3.45
2023-01-30T17:53:11.890Z,4.38
2023-01-30T17:55:41.248Z,3.00
2023-01-30T17:58:14.918Z,2.67
2023-01-30T18:00:44.373Z,3.83
2023-01-30T18:03:14.684Z,3.28
2023-01-30T18:05:44.459Z,2.22
2023-01-30T18:08:14.214Z,3.28
2023-01-30T18:10:43.517Z,3.20
2023-01-30T18:13:12.792Z,3.33
2023-01-30T18:15:42.156Z,2.67
2023-01-30T18:18:16.150Z,3.10
2023-01-30T18:20:47.432Z,3.55
2023-01-30T18:23:16.790Z,3.03
2023-01-30T18:25:46.084Z,3.33
2023-01-30T18:28:15.750Z,2.92
2023-01-30T18:30:45.288Z,2.70
2023-01-30T18:33:14.583Z,2.80
2023-01-30T18:35:43.834Z,4.10
2023-01-30T18:38:13.115Z,3.33
2023-01-30T18:40:42.435Z,3.20
2023-01-30T18:43:11.681Z,2.75
2023-01-30T18:45:41.031Z,4.05
2023-01-30T18:48:10.329Z,3.03
2023-01-30T18:50:39.617Z,4.35
2023-01-30T18:53:09.792Z,3.03
2023-01-30T18:55:39.075Z,2.38
2023-01-30T18:58:08.376Z,3.15
2023-01-30T19:00:37.627Z,2.55
2023-01-30T19:03:06.942Z,2.65
2023-01-30T19:05:38.399Z,4.30
2023-01-30T19:08:07.759Z,2.47
2023-01-30T19:10:37.218Z,3.53
2023-01-30T19:13:18.933Z,3.40
2023-01-30T19:15:48.206Z,3.77
2023-01-30T19:18:17.527Z,3.25
2023-01-30T19:20:46.769Z,3.53
2023-01-30T19:23:16.031Z,2.75
2023-01-30T19:25:45.274Z,3.78
2023-01-30T19:28:14.669Z,3.63
2023-01-30T19:30:44.116Z,3.20
2023-01-30T19:33:13.390Z,3.13
2023-01-30T19:35:43.880Z,3.08
2023-01-30T19:38:13.533Z,2.83
2023-01-30T19:40:47.958Z,3.67
2023-01-30T19:43:17.740Z,3.63
2023-01-30T19:45:47.187Z,3.35
2023-01-30T19:48:16.514Z,3.88
2023-01-30T19:50:46.043Z,3.40
2023-01-30T19:53:15.417Z,3.05
2023-01-30T19:55:44.694Z,3.28
2023-01-30T19:58:14.008Z,4.22
2023-01-30T20:00:43.302Z,3.25
2023-01-30T20:03:13.307Z,4.30
2023-01-30T20:05:42.795Z,3.65
2023-01-30T20:08:25.571Z,3.20
2023-01-30T20:11:07.437Z,4.13
2023-01-30T20:13:37.231Z,3.47
2023-01-30T20:16:10.522Z,2.95
2023-01-30T20:18:40.499Z,3.58
2023-01-30T20:21:14.344Z,3.50
2023-01-30T20:23:44.841Z,3.60
2023-01-30T20:26:15.285Z,3.38
2023-01-30T20:28:45.175Z,3.17
2023-01-30T20:31:16.036Z,3.25
2023-01-30T20:33:45.586Z,3.00
2023-01-30T20:36:16.195Z,3.35
2023-01-30T20:38:46.664Z,2.90
2023-01-30T20:41:20.012Z,4.72
2023-01-30T20:43:51.780Z,3.33
2023-01-30T20:46:24.939Z,4.22
2023-01-30T20:48:54.951Z,3.78
2023-01-30T20:51:31.238Z,4.47
2023-01-30T20:54:05.504Z,4.03
2023-01-30T20:56:45.347Z,2.67
2023-01-30T20:59:16.003Z,4.07
2023-01-30T21:01:45.669Z,3.40
2023-01-30T21:04:16.793Z,3.88
2023-01-30T21:06:47.253Z,3.78
2023-01-30T21:09:22.651Z,3.30
2023-01-30T21:11:53.099Z,3.13
2023-01-30T21:14:23.312Z,3.35
2023-01-30T21:16:53.407Z,3.22
2023-01-30T21:19:22.932Z,4.47
2023-01-30T21:21:54.653Z,3.58
2023-01-30T21:24:26.000Z,3.55
2023-01-30T21:26:55.508Z,3.78
2023-01-30T21:29:26.769Z,4.15
2023-01-30T21:31:56.657Z,3.88
2023-01-30T21:34:26.187Z,3.90
2023-01-30T21:37:08.075Z,5.38
2023-01-30T21:39:49.986Z,4.38
2023-01-30T21:42:31.732Z,5.80
2023-01-30T21:45:01.413Z,5.47
2023-01-30T21:47:30.787Z,5.18
2023-01-30T21:50:00.228Z,3.25
2023-01-30T21:52:29.490Z,3.35
2023-01-30T21:54:59.070Z,5.97
2023-01-30T21:57:28.516Z,3.75
2023-01-30T21:59:57.999Z,3.83
2023-01-30T22:02:27.537Z,3.88
2023-01-30T22:04:56.845Z,3.47
2023-01-30T22:07:26.372Z,3.28
2023-01-30T22:09:55.778Z,3.55
2023-01-30T22:12:27.914Z,3.22
2023-01-30T22:14:57.210Z,3.75
2023-01-30T22:17:26.557Z,3.33
2023-01-30T22:19:55.855Z,4.72
2023-01-30T22:22:26.941Z,3.40
2023-01-30T22:24:56.691Z,3.70
2023-01-30T22:27:26.050Z,3.58
2023-01-30T22:29:58.430Z,3.10
2023-01-30T22:34:56.965Z,3.60
2023-01-30T22:37:26.197Z,2.75
2023-01-30T22:39:55.447Z,3.22
2023-01-30T22:42:24.670Z,3.72
2023-01-30T22:44:54.550Z,3.17
2023-01-30T22:47:23.914Z,3.40
2023-01-30T22:49:53.146Z,3.13
2023-01-30T22:52:25.527Z,4.95
2023-01-30T22:57:24.057Z,3.45
2023-01-30T22:59:53.832Z,4.32
2023-01-30T23:02:23.226Z,2.90
2023-01-30T23:04:55.016Z,4.13
2023-01-30T23:07:24.535Z,2.83
2023-01-30T23:09:53.979Z,3.67
2023-01-30T23:12:35.912Z,3.92
2023-01-30T23:15:05.248Z,3.70
2023-01-30T23:17:55.925Z,3.40
2023-01-30T23:20:25.456Z,3.42
2023-01-30T23:22:54.786Z,3.85
2023-01-30T23:25:24.295Z,3.67
2023-01-30T23:27:53.833Z,2.50
2023-01-30T23:30:23.284Z,3.40
2023-01-30T23:32:53.835Z,3.08
2023-01-30T23:35:23.308Z,3.95
2023-01-30T23:38:05.091Z,2.97
2023-01-30T23:40:34.405Z,4.00
2023-01-30T23:43:03.776Z,3.45
2023-01-30T23:45:33.204Z,5.10
2023-01-30T23:48:02.629Z,3.80
2023-01-30T23:50:32.020Z,3.50
2023-01-30T23:53:01.482Z,2.58
2023-01-30T23:55:32.564Z,3.67
2023-01-30T23:58:02.632Z,3.67
